createdAt,value
2018-02-04T00:02:23.979Z,6.10
2018-02-04T00:04:50.316Z,9.27
2018-02-04T00:07:16.548Z,6.80
2018-02-04T00:09:42.764Z,10.13
2018-02-04T00:12:08.984Z,9.15
2018-02-04T00:14:35.256Z,8.15
2018-02-04T00:17:01.530Z,8.65
2018-02-04T00:19:27.839Z,7.43
2018-02-04T00:21:54.815Z,8.20
2018-02-04T00:24:21.007Z,9.18
2018-02-04T00:26:48.044Z,8.43
2018-02-04T00:29:15.071Z,8.90
2018-02-04T00:31:41.343Z,8.03
2018-02-04T00:34:07.707Z,9.38
2018-02-04T00:36:33.908Z,9.80
2018-02-04T00:39:00.191Z,11.10
2018-02-04T00:41:26.510Z,11.52
2018-02-04T00:43:52.735Z,10.90
2018-02-04T00:46:18.955Z,10.68
2018-02-04T00:48:45.236Z,11.07
2018-02-04T00:51:12.311Z,14.60
2018-02-04T00:53:38.623Z,9.68
2018-02-04T00:56:04.856Z,12.85
2018-02-04T00:58:31.839Z,12.33
2018-02-04T01:00:58.091Z,12.32
2018-02-04T01:03:24.312Z,16.42
2018-02-04T01:05:50.567Z,11.80
2018-02-04T01:08:17.623Z,12.20
2018-02-04T01:10:44.712Z,11.50
2018-02-04T01:13:11.031Z,13.25
2018-02-04T01:15:37.288Z,13.30
2018-02-04T01:18:03.501Z,13.82
2018-02-04T01:20:29.766Z,14.55
2018-02-04T01:22:55.987Z,14.65
2018-02-04T01:25:22.256Z,16.07
2018-02-04T01:27:48.475Z,18.80
2018-02-04T01:30:15.496Z,13.93
2018-02-04T01:32:41.779Z,17.60
2018-02-04T01:35:08.043Z,15.02
2018-02-04T01:37:34.271Z,14.35
2018-02-04T01:40:00.532Z,13.48
2018-02-04T01:42:27.554Z,17.20
2018-02-04T01:44:53.843Z,17.75
2018-02-04T01:47:20.160Z,13.50
2018-02-04T01:49:46.415Z,15.30
2018-02-04T01:52:12.611Z,15.57
2018-02-04T01:54:39.931Z,16.20
2018-02-04T01:57:06.152Z,16.43
2018-02-04T01:59:32.427Z,15.55
2018-02-04T02:01:59.158Z,18.58
2018-02-04T02:04:26.275Z,17.02
2018-02-04T02:06:52.550Z,18.75
2018-02-04T02:09:18.827Z,18.37
2018-02-04T02:11:45.028Z,18.60
2018-02-04T02:14:11.295Z,17.77
2018-02-04T02:16:37.551Z,19.87
2018-02-04T02:19:03.894Z,16.87
2018-02-04T02:21:30.123Z,17.60
2018-02-04T02:23:56.323Z,16.65
2018-02-04T02:26:23.531Z,16.23
2018-02-04T02:28:49.773Z,19.35
2018-02-04T02:31:16.033Z,18.85
2018-02-04T02:33:42.973Z,19.37
2018-02-04T02:36:10.047Z,19.33
2018-02-04T02:38:36.285Z,20.00
2018-02-04T02:41:02.532Z,18.02
2018-02-04T02:43:28.727Z,17.48
2018-02-04T02:45:55.043Z,20.12
2018-02-04T02:48:22.051Z,17.75
2018-02-04T02:50:48.327Z,19.80
2018-02-04T02:53:15.292Z,20.85
2018-02-04T02:55:41.615Z,21.95
2018-02-04T02:58:07.844Z,20.62
2018-02-04T03:00:34.127Z,23.12
2018-02-04T03:03:00.429Z,20.05
2018-02-04T03:05:26.728Z,24.58
2018-02-04T03:07:53.019Z,22.67
2018-02-04T03:10:19.311Z,20.23
2018-02-04T03:12:45.608Z,21.35
2018-02-04T03:15:12.579Z,24.90
2018-02-04T03:17:38.807Z,22.80
2018-02-04T03:20:05.095Z,21.33
2018-02-04T03:22:31.404Z,20.42
2018-02-04T03:24:57.663Z,20.70
2018-02-04T03:27:24.696Z,24.08
2018-02-04T03:29:50.975Z,22.17
2018-02-04T03:32:17.183Z,22.05
2018-02-04T03:34:43.440Z,21.37
2018-02-04T03:37:09.641Z,25.37
2018-02-04T03:39:35.935Z,20.80
2018-02-04T03:42:02.161Z,21.40
2018-02-04T03:44:28.414Z,18.77
2018-02-04T03:46:55.348Z,16.98
2018-02-04T03:49:22.343Z,21.40
2018-02-04T03:51:48.567Z,24.00
2018-02-04T03:54:19.784Z,20.80
2018-02-04T03:56:45.991Z,21.67
2018-02-04T03:59:12.232Z,21.40
2018-02-04T04:01:39.283Z,20.97
2018-02-04T04:04:06.331Z,23.00
2018-02-04T04:06:33.335Z,20.67
2018-02-04T04:08:59.523Z,20.70
2018-02-04T04:11:25.783Z,21.02
2018-02-04T04:13:52.013Z,21.33
2018-02-04T04:16:18.277Z,22.45
2018-02-04T04:18:44.604Z,22.02
2018-02-04T04:21:10.867Z,19.37
2018-02-04T04:23:37.084Z,17.65
2018-02-04T04:26:04.075Z,19.15
2018-02-04T04:28:30.289Z,21.70
2018-02-04T04:30:56.512Z,21.60
2018-02-04T04:33:22.767Z,22.08
2018-02-04T04:35:49.037Z,24.30
2018-02-04T04:38:16.079Z,21.33
2018-02-04T04:40:43.039Z,22.67
2018-02-04T04:43:09.276Z,22.20
2018-02-04T04:45:35.554Z,23.95
2018-02-04T04:48:01.776Z,23.20
2018-02-04T04:50:28.019Z,20.02
2018-02-04T04:52:54.294Z,24.67
2018-02-04T04:55:20.622Z,24.05
2018-02-04T04:57:46.836Z,23.05
2018-02-04T05:00:13.840Z,25.15
2018-02-04T05:02:40.051Z,23.27
2018-02-04T05:05:06.283Z,22.50
2018-02-04T05:07:32.560Z,25.00
2018-02-04T05:09:59.591Z,26.03
2018-02-04T05:12:25.807Z,26.80
2018-02-04T05:14:52.063Z,21.55
2018-02-04T05:17:19.060Z,22.92
2018-02-04T05:19:45.384Z,22.13
2018-02-04T05:22:12.398Z,21.17
2018-02-04T05:24:38.684Z,24.90
2018-02-04T05:27:04.964Z,22.15
2018-02-04T05:29:31.283Z,21.60
2018-02-04T05:31:58.355Z,20.23
2018-02-04T05:34:24.607Z,21.63
2018-02-04T05:36:50.935Z,22.40
2018-02-04T05:39:17.167Z,23.77
2018-02-04T05:41:43.443Z,23.10
2018-02-04T05:44:10.487Z,21.58
2018-02-04T05:46:37.484Z,24.08
2018-02-04T05:49:03.787Z,22.70
2018-02-04T05:51:30.036Z,24.33
2018-02-04T05:53:56.248Z,22.65
2018-02-04T05:56:22.524Z,21.37
2018-02-04T05:58:48.728Z,23.70
2018-02-04T06:01:15.005Z,20.50
2018-02-04T06:03:42.047Z,22.30
2018-02-04T06:06:09.049Z,23.03
2018-02-04T06:08:35.364Z,20.65
2018-02-04T06:11:01.711Z,22.05
2018-02-04T06:13:27.936Z,20.92
2018-02-04T06:15:54.188Z,19.37
2018-02-04T06:18:20.436Z,22.93
2018-02-04T06:20:46.804Z,19.83
2018-02-04T06:23:13.131Z,18.40
2018-02-04T06:25:39.401Z,18.97
2018-02-04T06:28:05.771Z,19.67
2018-02-04T06:30:32.794Z,25.50
2018-02-04T06:32:59.340Z,20.45
2018-02-04T06:35:25.582Z,22.40
2018-02-04T06:37:51.888Z,25.20
2018-02-04T06:40:18.195Z,21.37
2018-02-04T06:42:44.475Z,25.88
2018-02-04T06:45:11.461Z,23.10
2018-02-04T06:47:37.683Z,20.67
2018-02-04T06:50:03.947Z,23.27
2018-02-04T06:52:30.167Z,20.00
2018-02-04T06:54:56.424Z,21.95
2018-02-04T06:57:22.652Z,20.65
2018-02-04T06:59:48.923Z,22.05
2018-02-04T07:02:15.155Z,19.80
2018-02-04T07:04:41.423Z,18.27
2018-02-04T07:07:07.732Z,17.30
2018-02-04T07:09:33.992Z,15.85
2018-02-04T07:12:00.215Z,16.05
2018-02-04T07:14:26.475Z,14.93
2018-02-04T07:16:52.682Z,18.27
2018-02-04T07:19:18.956Z,15.50
2018-02-04T07:21:45.208Z,19.08
2018-02-04T07:24:11.428Z,16.95
2018-02-04T07:26:37.695Z,16.92
2018-02-04T07:29:03.926Z,17.75
2018-02-04T07:31:30.987Z,22.45
2018-02-04T07:33:57.204Z,19.40
2018-02-04T07:36:24.191Z,25.48
2018-02-04T07:38:50.411Z,31.62
2018-02-04T07:41:16.707Z,22.15
2018-02-04T07:43:43.719Z,23.85
2018-02-04T07:46:09.983Z,18.02
2018-02-04T07:48:37.031Z,16.42
2018-02-04T07:51:04.103Z,17.50
2018-02-04T07:53:30.317Z,17.70
2018-02-04T07:55:57.305Z,18.33
2018-02-04T07:58:23.523Z,20.27
2018-02-04T08:00:49.791Z,17.95
2018-02-04T08:03:16.023Z,16.17
2018-02-04T08:05:42.276Z,20.65
2018-02-04T08:08:09.231Z,17.83
2018-02-04T08:10:35.477Z,19.62
2018-02-04T08:13:02.913Z,19.58
2018-02-04T08:15:29.407Z,20.80
2018-02-04T08:17:55.623Z,19.45
2018-02-04T08:20:22.692Z,17.95
2018-02-04T08:22:49.043Z,21.10
2018-02-04T08:25:16.037Z,19.67
2018-02-04T08:27:42.248Z,18.60
2018-02-04T08:30:08.500Z,22.00
2018-02-04T08:32:34.711Z,18.50
2018-02-04T08:35:00.961Z,17.17
2018-02-04T08:37:27.938Z,21.30
2018-02-04T08:39:55.024Z,19.73
2018-02-04T08:42:21.319Z,18.80
2018-02-04T08:44:48.311Z,23.05
2018-02-04T08:47:14.623Z,19.40
2018-02-04T08:49:40.880Z,21.85
2018-02-04T08:52:07.084Z,21.50
2018-02-04T08:54:33.334Z,17.67
2018-02-04T08:56:59.607Z,22.63
2018-02-04T08:59:25.859Z,19.20
2018-02-04T09:01:52.059Z,19.87
2018-02-04T09:04:18.299Z,19.77
2018-02-04T09:06:45.275Z,21.45
2018-02-04T09:09:11.528Z,20.17
2018-02-04T09:11:37.740Z,20.30
2018-02-04T09:14:03.967Z,15.88
2018-02-04T09:16:30.256Z,19.77
2018-02-04T09:18:57.299Z,16.60
2018-02-04T09:21:23.515Z,19.70
2018-02-04T09:23:49.782Z,25.33
2018-02-04T09:26:16.003Z,21.58
2018-02-04T09:28:42.957Z,20.63
2018-02-04T09:31:09.191Z,19.30
2018-02-04T09:33:35.408Z,18.10
2018-02-04T09:36:02.372Z,21.20
2018-02-04T09:38:28.608Z,18.75
2018-02-04T09:40:54.836Z,20.70
2018-02-04T09:43:21.040Z,20.97
2018-02-04T09:45:48.012Z,21.07
2018-02-04T09:48:14.248Z,20.00
2018-02-04T09:50:40.487Z,21.15
2018-02-04T09:53:06.721Z,18.37
2018-02-04T09:55:33.030Z,18.07
2018-02-04T09:57:59.943Z,19.47
2018-02-04T10:00:26.896Z,22.03
2018-02-04T10:02:53.091Z,17.57
2018-02-04T10:05:19.324Z,18.00
2018-02-04T10:07:46.303Z,16.80
2018-02-04T10:10:12.528Z,19.53
2018-02-04T10:12:38.730Z,19.73
2018-02-04T10:15:05.771Z,16.33
2018-02-04T10:17:32.111Z,16.37
2018-02-04T10:19:59.123Z,17.40
2018-02-04T10:22:25.348Z,15.00
2018-02-04T10:24:51.579Z,14.77
2018-02-04T10:27:17.835Z,17.50
2018-02-04T10:29:44.063Z,13.07
2018-02-04T10:32:10.267Z,12.50
2018-02-04T10:34:36.495Z,13.77
2018-02-04T10:37:02.712Z,15.77
2018-02-04T10:39:29.666Z,14.87
2018-02-04T10:41:56.643Z,17.33
2018-02-04T10:44:22.861Z,12.63
2018-02-04T10:46:49.076Z,11.40
2018-02-04T10:49:16.035Z,10.23
2018-02-04T10:51:48.296Z,10.00
2018-02-04T10:54:14.509Z,10.40
2018-02-04T10:56:40.775Z,10.07
2018-02-04T10:59:07.751Z,9.63
2018-02-04T11:01:33.987Z,8.27
2018-02-04T11:04:00.180Z,7.10
2018-02-04T11:06:27.155Z,9.80
2018-02-04T11:08:53.367Z,9.90
2018-02-04T11:11:19.592Z,9.67
2018-02-04T11:13:45.800Z,7.40
2018-02-04T11:16:12.020Z,7.53
2018-02-04T11:18:38.288Z,8.60
2018-02-04T11:21:05.252Z,8.00
2018-02-04T11:23:31.463Z,8.17
2018-02-04T11:25:57.692Z,8.30
2018-02-04T11:28:23.891Z,8.13
2018-02-04T11:30:51.083Z,7.60
2018-02-04T11:33:17.301Z,10.43
2018-02-04T11:35:43.529Z,7.40
2018-02-04T11:38:09.724Z,8.43
2018-02-04T11:40:36.751Z,9.43
2018-02-04T11:43:02.963Z,7.40
2018-02-04T11:45:29.215Z,7.70
2018-02-04T11:47:55.424Z,8.43
2018-02-04T11:50:21.659Z,7.53
2018-02-04T11:52:47.920Z,9.97
2018-02-04T11:55:14.899Z,8.67
2018-02-04T11:57:41.122Z,6.63
2018-02-04T12:00:07.376Z,6.93
2018-02-04T12:02:33.597Z,9.03
2018-02-04T12:04:59.817Z,6.87
2018-02-04T12:07:26.068Z,9.30
2018-02-04T12:09:52.300Z,6.73
2018-02-04T12:12:19.260Z,5.53
2018-02-04T12:14:45.499Z,6.80
2018-02-04T12:17:11.796Z,7.63
2018-02-04T12:19:38.081Z,4.50
2018-02-04T12:22:04.299Z,3.63
2018-02-04T12:24:31.260Z,5.13
2018-02-04T12:26:57.491Z,5.87
2018-02-04T12:29:23.766Z,5.23
2018-02-04T12:31:49.971Z,4.93
2018-02-04T12:34:16.221Z,5.43
2018-02-04T12:36:42.426Z,5.20
2018-02-04T12:39:08.648Z,5.07
2018-02-04T12:41:34.852Z,4.83
2018-02-04T12:44:01.108Z,4.53
2018-02-04T12:46:27.365Z,7.27
2018-02-04T12:48:53.603Z,7.20
2018-02-04T12:51:19.820Z,5.30
2018-02-04T12:53:46.051Z,6.47
2018-02-04T12:56:12.548Z,7.93
2018-02-04T12:58:38.823Z,6.63
2018-02-04T13:01:05.043Z,6.13
2018-02-04T13:03:31.659Z,6.70
2018-02-04T13:05:57.880Z,5.80
2018-02-04T13:08:24.196Z,9.40
2018-02-04T13:10:50.652Z,7.00
2018-02-04T13:13:16.875Z,4.40
2018-02-04T13:15:43.115Z,7.53
2018-02-04T13:18:09.528Z,4.77
2018-02-04T13:20:35.882Z,5.73
2018-02-04T13:23:02.152Z,6.00
2018-02-04T13:25:29.348Z,7.50
2018-02-04T13:27:55.547Z,10.60
2018-02-04T13:30:21.848Z,45.87
2018-02-04T13:32:48.240Z,12.77
2018-02-04T13:35:14.516Z,7.23
2018-02-04T13:37:41.117Z,8.73
2018-02-04T13:40:07.483Z,18.07
2018-02-04T13:42:33.736Z,9.80
2018-02-04T13:45:00.192Z,27.00
2018-02-04T13:47:26.375Z,15.77
2018-02-04T13:49:52.587Z,8.53
2018-02-04T13:52:19.004Z,11.53
2018-02-04T13:54:45.209Z,7.50
2018-02-04T13:57:12.483Z,11.80
2018-02-04T13:59:38.998Z,9.13
2018-02-04T14:02:05.251Z,8.23
2018-02-04T14:04:31.463Z,9.33
2018-02-04T14:06:57.896Z,6.07
2018-02-04T14:09:24.092Z,5.77
2018-02-04T14:11:50.387Z,6.83
2018-02-04T14:14:16.931Z,28.17
2018-02-04T14:16:43.897Z,15.23
2018-02-04T14:19:10.135Z,7.13
2018-02-04T14:21:36.504Z,7.70
2018-02-04T14:24:02.739Z,9.20
2018-02-04T14:26:28.960Z,9.27
2018-02-04T14:28:55.399Z,7.10
2018-02-04T14:31:21.628Z,8.53
2018-02-04T14:33:47.923Z,7.23
2018-02-04T14:36:14.316Z,7.73
2018-02-04T14:38:40.827Z,7.43
2018-02-04T14:41:08.579Z,5.10
2018-02-04T14:43:34.996Z,5.83
2018-02-04T14:46:01.339Z,7.27
2018-02-04T14:48:27.672Z,6.20
2018-02-04T14:50:54.299Z,8.33
2018-02-04T14:53:20.628Z,11.30
2018-02-04T14:55:46.860Z,7.77
2018-02-04T14:58:13.295Z,6.80
2018-02-04T15:00:39.541Z,6.43
2018-02-04T15:03:05.751Z,5.73
2018-02-04T15:05:32.227Z,5.90
2018-02-04T15:07:58.428Z,5.87
2018-02-04T15:10:24.640Z,5.40
2018-02-04T15:12:51.171Z,4.97
2018-02-04T15:15:17.382Z,7.57
2018-02-04T15:17:43.644Z,5.90
2018-02-04T15:20:10.478Z,7.23
2018-02-04T15:22:36.689Z,9.03
2018-02-04T15:25:02.903Z,17.43
2018-02-04T15:27:29.664Z,10.80
2018-02-04T15:29:55.868Z,10.73
2018-02-04T15:32:22.067Z,8.53
2018-02-04T15:34:48.551Z,5.90
2018-02-04T15:37:14.803Z,8.07
2018-02-04T15:39:42.139Z,8.97
2018-02-04T15:42:08.600Z,7.03
2018-02-04T15:44:34.823Z,8.10
2018-02-04T15:47:01.026Z,8.17
2018-02-04T15:49:27.455Z,11.47
2018-02-04T15:51:53.651Z,9.50
2018-02-04T15:54:20.592Z,9.30
2018-02-04T15:56:47.556Z,10.10
2018-02-04T15:59:13.831Z,6.57
2018-02-04T16:01:40.028Z,10.20
2018-02-04T16:04:06.237Z,8.17
2018-02-04T16:06:32.548Z,8.00
2018-02-04T16:08:59.983Z,9.23
2018-02-04T16:11:26.207Z,7.80
2018-02-04T16:13:52.407Z,8.70
2018-02-04T16:16:18.650Z,8.63
2018-02-04T16:18:44.927Z,8.60
2018-02-04T16:21:11.884Z,9.87
2018-02-04T16:23:38.072Z,16.47
2018-02-04T16:26:04.295Z,10.57
2018-02-04T16:28:30.519Z,9.27
2018-02-04T16:30:56.759Z,10.90
2018-02-04T16:33:23.203Z,10.60
2018-02-04T16:35:49.577Z,11.53
2018-02-04T16:38:15.843Z,12.87
2018-02-04T16:40:42.071Z,12.00
2018-02-04T16:43:08.301Z,11.30
2018-02-04T16:45:34.609Z,10.87
2018-02-04T16:48:00.816Z,12.43
2018-02-04T16:50:27.404Z,18.30
2018-02-04T16:52:53.672Z,14.60
2018-02-04T16:55:19.944Z,13.87
2018-02-04T16:57:46.868Z,11.03
2018-02-04T17:00:13.107Z,15.20
2018-02-04T17:02:39.355Z,12.57
2018-02-04T17:05:07.758Z,11.47
2018-02-04T17:07:36.688Z,11.60
2018-02-04T17:10:05.193Z,12.60
2018-02-04T17:12:35.909Z,17.23
2018-02-04T17:15:07.815Z,14.17
2018-02-04T17:17:36.477Z,14.73
2018-02-04T17:20:07.458Z,12.37
2018-02-04T17:22:35.177Z,12.00
2018-02-04T17:25:02.861Z,17.50
2018-02-04T17:27:31.100Z,13.33
2018-02-04T17:29:59.247Z,15.20
2018-02-04T17:32:27.912Z,14.27
2018-02-04T17:34:56.635Z,14.80
2018-02-04T17:37:24.380Z,11.80
2018-02-04T17:39:53.121Z,12.90
2018-02-04T17:42:22.533Z,15.77
2018-02-04T17:44:51.494Z,16.77
2018-02-04T17:47:20.253Z,18.77
2018-02-04T17:49:49.378Z,24.37
2018-02-04T17:52:20.290Z,31.50
2018-02-04T17:54:48.405Z,22.03
2018-02-04T17:57:17.142Z,16.50
2018-02-04T17:59:45.131Z,16.30
2018-02-04T18:02:13.202Z,18.33
2018-02-04T18:04:42.357Z,22.37
2018-02-04T18:07:10.613Z,16.77
2018-02-04T18:09:38.560Z,23.50
2018-02-04T18:12:07.430Z,23.53
2018-02-04T18:14:37.520Z,15.93
2018-02-04T18:17:05.632Z,29.80
2018-02-04T18:19:34.200Z,29.70
2018-02-04T18:22:02.075Z,33.53
2018-02-04T18:24:29.739Z,15.20
2018-02-04T18:26:58.175Z,19.93
2018-02-04T18:29:26.957Z,20.33
2018-02-04T18:31:55.926Z,28.23
2018-02-04T18:34:23.798Z,21.10
2018-02-04T18:36:51.477Z,22.40
2018-02-04T18:39:19.178Z,23.80
2018-02-04T18:41:47.042Z,24.87
2018-02-04T18:44:16.448Z,18.60
2018-02-04T18:46:45.084Z,18.53
2018-02-04T18:49:13.180Z,14.40
2018-02-04T18:51:41.346Z,16.47
2018-02-04T18:54:08.433Z,16.30
2018-02-04T18:56:35.791Z,15.57
2018-02-04T18:59:03.523Z,12.50
2018-02-04T19:01:30.960Z,17.00
2018-02-04T19:04:00.803Z,17.67
2018-02-04T19:06:28.855Z,17.00
2018-02-04T19:08:57.524Z,14.07
2018-02-04T19:11:26.700Z,18.67
2018-02-04T19:13:53.647Z,14.63
2018-02-04T19:16:21.199Z,15.33
2018-02-04T19:18:49.457Z,16.57
2018-02-04T19:21:16.997Z,15.43
2018-02-04T19:23:43.639Z,15.87
2018-02-04T19:26:12.972Z,14.40
2018-02-04T19:28:42.669Z,17.70
2018-02-04T19:31:13.200Z,16.27
2018-02-04T19:33:41.705Z,16.63
2018-02-04T19:36:12.160Z,15.07
2018-02-04T19:38:40.816Z,17.03
2018-02-04T19:41:08.281Z,15.17
2018-02-04T19:43:36.593Z,17.57
2018-02-04T19:46:04.611Z,19.30
2018-02-04T19:48:32.561Z,21.23
2018-02-04T19:51:00.608Z,19.10
2018-02-04T19:53:29.039Z,19.70
2018-02-04T19:55:58.180Z,18.67
2018-02-04T19:58:25.998Z,19.93
2018-02-04T20:00:54.887Z,21.87
2018-02-04T20:03:23.851Z,25.63
2018-02-04T20:05:52.993Z,25.03
2018-02-04T20:08:21.780Z,21.40
2018-02-04T20:10:49.938Z,20.87
2018-02-04T20:13:18.531Z,21.53
2018-02-04T20:15:46.774Z,24.33
2018-02-04T20:18:15.446Z,20.33
2018-02-04T20:20:45.768Z,23.57
2018-02-04T20:23:14.822Z,21.40
2018-02-04T20:25:42.688Z,23.37
2018-02-04T20:28:09.848Z,24.70
2018-02-04T20:30:37.893Z,23.50
2018-02-04T20:33:18.975Z,21.30
2018-02-04T20:35:47.600Z,24.83
2018-02-04T20:38:16.296Z,23.67
2018-02-04T20:43:37.718Z,22.40
2018-02-04T20:46:05.867Z,23.30
2018-02-04T20:48:34.260Z,23.40
2018-02-04T20:51:02.707Z,23.03
2018-02-04T20:53:34.239Z,25.73
2018-02-04T20:56:03.649Z,32.17
2018-02-04T20:58:32.350Z,21.87
2018-02-04T21:01:00.490Z,23.77
2018-02-04T21:03:28.885Z,23.20
2018-02-04T21:05:59.289Z,22.60
2018-02-04T21:08:27.971Z,23.00
2018-02-04T21:10:56.284Z,23.63
2018-02-04T21:13:26.340Z,28.40
2018-02-04T21:15:54.542Z,28.50
2018-02-04T21:18:22.580Z,28.47
2018-02-04T21:20:51.243Z,21.87
2018-02-04T21:23:19.635Z,23.63
2018-02-04T21:25:47.392Z,21.03
2018-02-04T21:28:15.274Z,27.33
2018-02-04T21:30:43.942Z,22.00
2018-02-04T21:33:12.887Z,26.60
2018-02-04T21:35:40.515Z,29.50
2018-02-04T21:38:08.039Z,24.93
2018-02-04T21:40:36.188Z,31.77
2018-02-04T21:43:04.225Z,28.63
2018-02-04T21:45:32.818Z,35.40
2018-02-04T21:48:01.590Z,26.10
2018-02-04T21:50:29.304Z,30.90
2018-02-04T21:52:56.865Z,28.07
2018-02-04T21:55:25.060Z,30.43
2018-02-04T21:57:53.088Z,32.47
2018-02-04T22:00:21.986Z,26.83
2018-02-04T22:02:50.004Z,28.57
2018-02-04T22:05:18.212Z,23.27
2018-02-04T22:07:46.218Z,27.57
2018-02-04T22:10:16.555Z,26.20
2018-02-04T22:12:46.615Z,24.57
2018-02-04T22:15:14.657Z,27.90
2018-02-04T22:17:43.084Z,35.17
2018-02-04T22:20:10.851Z,30.27
2018-02-04T22:22:39.489Z,25.53
2018-02-04T22:25:07.705Z,23.97
2018-02-04T22:27:35.695Z,27.40
2018-02-04T22:30:02.773Z,25.67
2018-02-04T22:32:30.660Z,25.00
2018-02-04T22:34:58.662Z,25.20
2018-02-04T22:37:27.760Z,27.70
2018-02-04T22:39:57.280Z,28.10
2018-02-04T22:42:26.227Z,25.50
2018-02-04T22:44:54.724Z,24.83
2018-02-04T22:47:24.031Z,27.67
2018-02-04T22:49:51.533Z,23.20
2018-02-04T22:52:20.064Z,28.07
2018-02-04T22:54:48.184Z,25.60
2018-02-04T22:57:17.222Z,25.10
2018-02-04T22:59:45.669Z,29.00
2018-02-04T23:02:13.770Z,24.23
2018-02-04T23:04:41.716Z,26.80
2018-02-04T23:07:10.094Z,26.00
2018-02-04T23:09:37.318Z,28.10
2018-02-04T23:12:05.731Z,28.40
2018-02-04T23:14:35.289Z,27.63
2018-02-04T23:17:03.222Z,24.33
2018-02-04T23:19:31.701Z,26.33
2018-02-04T23:22:00.294Z,28.40
2018-02-04T23:24:29.021Z,23.40
2018-02-04T23:26:57.016Z,24.37
2018-02-04T23:29:25.394Z,25.20
2018-02-04T23:31:53.496Z,27.37
2018-02-04T23:34:21.201Z,21.70
2018-02-04T23:36:49.354Z,22.50
2018-02-04T23:39:17.429Z,33.40
2018-02-04T23:41:45.564Z,19.17
2018-02-04T23:44:13.996Z,22.67
2018-02-04T23:46:41.928Z,22.77
2018-02-04T23:49:09.991Z,20.67
2018-02-04T23:51:38.851Z,19.17
2018-02-04T23:54:08.182Z,20.80
2018-02-04T23:56:37.119Z,20.40
2018-02-04T23:59:05.519Z,21.43
